createdAt,value
2022-07-28T00:00:33.934Z,100.00
2022-07-28T00:03:02.095Z,100.00
2022-07-28T00:05:29.896Z,100.00
2022-07-28T00:08:00.214Z,100.00
2022-07-28T00:10:27.918Z,100.00
2022-07-28T00:12:55.923Z,100.00
2022-07-28T00:15:23.569Z,100.00
2022-07-28T00:17:51.415Z,100.00
2022-07-28T00:20:19.052Z,100.00
2022-07-28T00:22:46.815Z,100.00
2022-07-28T00:25:15.829Z,100.00
2022-07-28T00:27:43.993Z,100.00
2022-07-28T00:32:39.972Z,100.00
2022-07-28T00:35:08.867Z,100.00
2022-07-28T00:37:39.751Z,100.00
2022-07-28T00:40:08.935Z,100.00
2022-07-28T00:42:38.304Z,100.00
2022-07-28T00:45:07.106Z,100.00
2022-07-28T00:47:34.799Z,100.00
2022-07-28T00:50:02.608Z,100.00
2022-07-28T00:52:30.782Z,100.00
2022-07-28T00:54:59.274Z,100.00
2022-07-28T00:57:26.953Z,100.00
2022-07-28T00:59:55.982Z,100.00
2022-07-28T01:02:23.872Z,100.00
2022-07-28T01:04:51.710Z,100.00
2022-07-28T01:07:25.129Z,100.00
2022-07-28T01:09:59.939Z,100.00
2022-07-28T01:12:37.314Z,100.00
2022-07-28T01:15:11.661Z,100.00
2022-07-28T01:17:43.316Z,100.00
2022-07-28T01:20:13.402Z,100.00
2022-07-28T01:22:43.611Z,100.00
2022-07-28T01:25:19.184Z,100.00
2022-07-28T01:27:54.768Z,100.00
2022-07-28T01:30:36.627Z,100.00
2022-07-28T01:33:11.405Z,100.00
2022-07-28T01:35:45.086Z,100.00
2022-07-28T01:38:13.571Z,100.00
2022-07-28T01:40:44.222Z,100.00
2022-07-28T01:43:16.070Z,100.00
2022-07-28T01:45:46.180Z,100.00
2022-07-28T01:48:16.688Z,100.00
2022-07-28T01:50:45.706Z,100.00
2022-07-28T01:53:15.039Z,100.00
2022-07-28T01:55:44.214Z,100.00
2022-07-28T01:58:12.798Z,100.00
2022-07-28T02:00:41.245Z,100.00
2022-07-28T02:03:11.730Z,100.00
2022-07-28T02:05:40.804Z,100.00
2022-07-28T02:08:09.355Z,100.00
2022-07-28T02:10:38.008Z,100.00
2022-07-28T02:13:06.116Z,100.00
2022-07-28T02:15:34.116Z,100.00
2022-07-28T02:18:02.365Z,100.00
2022-07-28T02:20:32.538Z,100.00
2022-07-28T02:23:00.568Z,100.00
2022-07-28T02:25:30.822Z,100.00
2022-07-28T02:28:00.999Z,100.00
2022-07-28T02:30:34.204Z,100.00
2022-07-28T02:33:04.948Z,100.00
2022-07-28T02:35:41.308Z,100.00
2022-07-28T02:38:13.475Z,100.00
2022-07-28T02:40:42.397Z,100.00
2022-07-28T02:43:12.840Z,100.00
2022-07-28T02:45:43.399Z,100.00
2022-07-28T02:48:14.104Z,100.00
2022-07-28T02:50:44.140Z,100.00
2022-07-28T02:53:16.307Z,100.00
2022-07-28T02:55:45.434Z,100.00
2022-07-28T02:58:14.005Z,100.00
2022-07-28T03:00:41.888Z,100.00
2022-07-28T03:03:09.792Z,100.00
2022-07-28T03:05:37.848Z,100.00
2022-07-28T03:08:07.270Z,100.00
2022-07-28T03:10:35.006Z,100.00
2022-07-28T03:13:03.403Z,100.00
2022-07-28T03:15:32.030Z,100.00
2022-07-28T03:18:00.658Z,100.00
2022-07-28T03:20:28.497Z,100.00
2022-07-28T03:22:56.355Z,100.00
2022-07-28T03:25:28.722Z,100.00
2022-07-28T03:27:58.115Z,100.00
2022-07-28T03:30:28.341Z,100.00
2022-07-28T03:32:58.003Z,100.00
2022-07-28T03:35:26.446Z,100.00
2022-07-28T03:37:56.367Z,100.00
2022-07-28T03:40:28.873Z,100.00
2022-07-28T03:42:57.715Z,100.00
2022-07-28T03:45:25.791Z,100.00
2022-07-28T03:47:55.140Z,100.00
2022-07-28T03:50:24.198Z,100.00
2022-07-28T03:52:52.465Z,100.00
2022-07-28T03:55:20.123Z,100.00
2022-07-28T03:57:49.263Z,100.00
2022-07-28T04:00:17.826Z,100.00
2022-07-28T04:02:46.446Z,100.00
2022-07-28T04:05:15.708Z,100.00
2022-07-28T04:07:44.095Z,100.00
2022-07-28T04:10:13.686Z,100.00
2022-07-28T04:12:51.019Z,100.00
2022-07-28T04:15:19.104Z,100.00
2022-07-28T04:17:48.642Z,100.00
2022-07-28T04:20:17.156Z,100.00
2022-07-28T04:22:45.194Z,100.00
2022-07-28T04:25:13.943Z,100.00
2022-07-28T04:27:42.149Z,100.00
2022-07-28T04:30:13.478Z,100.00
2022-07-28T04:32:41.355Z,100.00
2022-07-28T04:35:14.064Z,100.00
2022-07-28T04:37:45.340Z,100.00
2022-07-28T04:40:13.903Z,100.00
2022-07-28T04:42:41.881Z,100.00
2022-07-28T04:45:12.577Z,100.00
2022-07-28T04:47:40.729Z,100.00
2022-07-28T04:50:10.185Z,100.00
2022-07-28T04:52:38.325Z,100.00
2022-07-28T04:55:07.389Z,100.00
2022-07-28T04:57:35.402Z,100.00
2022-07-28T05:00:12.263Z,100.00
2022-07-28T05:02:43.141Z,100.00
2022-07-28T05:05:11.315Z,100.00
2022-07-28T05:07:39.645Z,100.00
2022-07-28T05:10:08.989Z,100.00
2022-07-28T05:12:36.773Z,100.00
2022-07-28T05:15:04.876Z,100.00
2022-07-28T05:17:32.577Z,100.00
2022-07-28T05:20:03.284Z,100.00
2022-07-28T05:22:42.254Z,100.00
2022-07-28T05:25:17.525Z,100.00
2022-07-28T05:27:45.962Z,100.00
2022-07-28T05:30:14.503Z,100.00
2022-07-28T05:32:42.748Z,100.00
2022-07-28T05:35:12.072Z,100.00
2022-07-28T05:37:39.722Z,100.00
2022-07-28T05:40:11.833Z,100.00
2022-07-28T05:42:40.608Z,100.00
2022-07-28T05:45:16.918Z,100.00
2022-07-28T05:47:46.634Z,100.00
2022-07-28T05:50:16.961Z,100.00
2022-07-28T05:52:45.504Z,100.00
2022-07-28T05:55:13.251Z,100.00
2022-07-28T05:57:41.385Z,100.00
2022-07-28T06:00:11.309Z,100.00
2022-07-28T06:02:39.303Z,100.00
2022-07-28T06:05:07.618Z,100.00
2022-07-28T06:07:43.340Z,100.00
2022-07-28T06:10:12.636Z,100.00
2022-07-28T06:12:41.993Z,100.00
2022-07-28T06:15:13.475Z,100.00
2022-07-28T06:17:41.184Z,100.00
2022-07-28T06:20:10.006Z,100.00
2022-07-28T06:22:47.878Z,100.00
2022-07-28T06:25:16.337Z,100.00
2022-07-28T06:27:44.392Z,100.00
2022-07-28T06:30:13.441Z,100.00
2022-07-28T06:32:41.319Z,100.00
2022-07-28T06:35:09.851Z,100.00
2022-07-28T06:37:37.700Z,100.00
2022-07-28T06:40:08.948Z,100.00
2022-07-28T06:42:36.600Z,100.00
2022-07-28T06:45:04.837Z,100.00
2022-07-28T06:47:32.599Z,100.00
2022-07-28T06:50:00.378Z,100.00
2022-07-28T06:52:28.323Z,100.00
2022-07-28T06:54:58.299Z,100.00
2022-07-28T06:57:33.455Z,100.00
2022-07-28T07:00:02.611Z,100.00
2022-07-28T07:02:30.269Z,100.00
2022-07-28T07:04:57.912Z,100.00
2022-07-28T07:07:26.338Z,100.00
2022-07-28T07:09:53.964Z,100.00
2022-07-28T07:12:22.256Z,100.00
2022-07-28T07:14:51.298Z,100.00
2022-07-28T07:17:19.158Z,100.00
2022-07-28T07:19:46.818Z,100.00
2022-07-28T07:22:15.238Z,97.01
2022-07-28T07:24:42.910Z,100.00
2022-07-28T07:27:11.064Z,100.00
2022-07-28T07:29:38.783Z,100.00
2022-07-28T07:32:10.710Z,100.00
2022-07-28T07:34:39.383Z,100.00
2022-07-28T07:37:07.725Z,99.62
2022-07-28T07:39:35.413Z,100.00
2022-07-28T07:42:03.057Z,100.00
2022-07-28T07:44:30.696Z,100.00
2022-07-28T07:46:58.607Z,100.00
2022-07-28T07:49:44.988Z,89.52
2022-07-28T07:52:14.016Z,100.00
2022-07-28T07:54:41.910Z,93.45
2022-07-28T07:57:09.604Z,98.49
2022-07-28T07:59:37.495Z,97.59
2022-07-28T08:02:05.631Z,91.05
2022-07-28T08:04:37.613Z,88.98
2022-07-28T08:07:06.338Z,93.49
2022-07-28T08:09:34.455Z,93.84
2022-07-28T08:12:02.142Z,87.57
2022-07-28T08:14:29.795Z,94.96
2022-07-28T08:16:59.299Z,100.00
2022-07-28T08:19:27.179Z,83.74
2022-07-28T08:21:56.393Z,85.09
2022-07-28T08:24:32.816Z,87.76
2022-07-28T08:27:01.846Z,82.54
2022-07-28T08:29:29.521Z,85.47
2022-07-28T08:31:57.215Z,90.29
2022-07-28T08:34:28.455Z,82.06
2022-07-28T08:37:03.375Z,83.53
2022-07-28T08:39:31.224Z,80.98
2022-07-28T08:42:01.223Z,73.22
2022-07-28T08:44:31.619Z,73.15
2022-07-28T08:47:00.124Z,67.56
2022-07-28T08:49:28.900Z,70.11
2022-07-28T08:51:57.244Z,71.45
2022-07-28T08:54:29.222Z,61.30
2022-07-28T08:56:58.450Z,64.12
2022-07-28T08:59:26.743Z,59.53
2022-07-28T09:01:57.606Z,61.47
2022-07-28T09:04:25.935Z,59.05
2022-07-28T09:06:53.626Z,60.95
2022-07-28T09:09:21.590Z,66.42
2022-07-28T09:11:50.692Z,64.39
2022-07-28T09:14:18.388Z,65.86
2022-07-28T09:16:46.054Z,68.67
2022-07-28T09:19:13.844Z,70.86
2022-07-28T09:21:43.156Z,67.58
2022-07-28T09:24:10.814Z,77.28
2022-07-28T09:26:38.479Z,74.45
2022-07-28T09:29:08.508Z,71.16
2022-07-28T09:31:36.313Z,78.90
2022-07-28T09:34:05.619Z,67.39
2022-07-28T09:36:39.172Z,68.61
2022-07-28T09:39:07.489Z,65.04
2022-07-28T09:41:48.402Z,71.52
2022-07-28T09:44:20.737Z,57.05
2022-07-28T09:46:48.626Z,63.65
2022-07-28T09:49:16.879Z,66.35
2022-07-28T09:52:00.275Z,71.00
2022-07-28T09:54:28.177Z,61.13
2022-07-28T09:56:55.898Z,71.52
2022-07-28T09:59:26.130Z,73.75
2022-07-28T10:01:59.807Z,67.52
2022-07-28T10:04:36.005Z,68.84
2022-07-28T10:07:06.654Z,72.00
2022-07-28T10:09:34.493Z,77.05
2022-07-28T10:12:19.151Z,62.97
2022-07-28T10:14:50.296Z,70.18
2022-07-28T10:17:25.843Z,69.75
2022-07-28T10:19:55.031Z,78.68
2022-07-28T10:22:24.288Z,68.33
2022-07-28T10:24:54.065Z,69.41
2022-07-28T10:27:23.352Z,66.84
2022-07-28T10:29:57.036Z,63.82
2022-07-28T10:32:24.845Z,63.08
2022-07-28T10:34:55.613Z,71.44
2022-07-28T10:37:25.307Z,70.33
2022-07-28T10:39:58.868Z,64.60
2022-07-28T10:42:27.312Z,59.77
2022-07-28T10:44:56.686Z,64.52
2022-07-28T10:47:24.635Z,64.63
2022-07-28T10:50:03.877Z,58.38
2022-07-28T10:52:46.772Z,54.57
2022-07-28T10:55:20.486Z,57.88
2022-07-28T10:58:02.030Z,57.33
2022-07-28T11:00:55.365Z,56.84
2022-07-28T11:03:42.912Z,59.21
2022-07-28T11:06:36.113Z,72.43
2022-07-28T11:09:22.267Z,61.74
2022-07-28T11:11:51.069Z,57.86
2022-07-28T11:14:37.122Z,64.69
2022-07-28T11:17:33.478Z,54.72
2022-07-28T11:20:27.034Z,53.96
2022-07-28T11:22:49.225Z,54.47
2022-07-28T11:25:22.324Z,52.30
2022-07-28T11:28:04.480Z,55.85
2022-07-28T11:30:53.469Z,48.18
2022-07-28T11:33:24.694Z,55.23
2022-07-28T11:36:00.158Z,56.89
2022-07-28T11:38:29.796Z,55.58
2022-07-28T11:40:57.970Z,66.10
2022-07-28T11:43:39.720Z,59.22
2022-07-28T11:46:33.065Z,54.53
2022-07-28T11:49:22.082Z,59.09
2022-07-28T11:52:16.678Z,53.14
2022-07-28T11:54:49.698Z,56.68
2022-07-28T11:57:19.561Z,57.32
2022-07-28T11:59:53.296Z,57.88
2022-07-28T12:02:23.224Z,52.23
2022-07-28T12:05:14.235Z,64.72
2022-07-28T12:07:47.336Z,53.22
2022-07-28T12:10:52.262Z,60.33
2022-07-28T12:13:14.281Z,51.11
2022-07-28T12:15:42.227Z,62.38
2022-07-28T12:18:12.176Z,48.73
2022-07-28T12:20:48.568Z,58.36
2022-07-28T12:23:16.677Z,49.71
2022-07-28T12:25:46.144Z,68.27
2022-07-28T12:28:16.259Z,48.99
2022-07-28T12:30:46.147Z,61.46
2022-07-28T12:33:17.897Z,54.39
2022-07-28T12:35:47.279Z,46.34
2022-07-28T12:38:15.260Z,50.36
2022-07-28T12:40:44.243Z,47.57
2022-07-28T12:43:11.907Z,54.42
2022-07-28T12:45:45.663Z,46.87
2022-07-28T12:48:14.295Z,48.96
2022-07-28T12:50:43.068Z,53.58
2022-07-28T12:53:13.005Z,51.51
2022-07-28T12:55:44.032Z,60.11
2022-07-28T12:58:23.179Z,52.38
2022-07-28T13:00:51.730Z,52.83
2022-07-28T13:03:24.327Z,50.38
2022-07-28T13:06:04.840Z,55.61
2022-07-28T13:08:44.716Z,49.94
2022-07-28T13:14:03.706Z,46.17
2022-07-28T13:16:31.519Z,52.75
2022-07-28T13:19:02.810Z,56.86
2022-07-28T13:21:41.298Z,59.57
2022-07-28T13:24:28.691Z,56.59
2022-07-28T13:26:57.266Z,46.49
2022-07-28T13:29:25.114Z,47.18
2022-07-28T13:31:54.742Z,52.08
2022-07-28T13:34:22.738Z,55.00
2022-07-28T13:36:52.294Z,50.39
2022-07-28T13:39:19.982Z,51.30
2022-07-28T13:41:58.368Z,49.10
2022-07-28T13:44:26.997Z,60.19
2022-07-28T13:46:55.492Z,57.42
2022-07-28T13:49:23.634Z,63.39
2022-07-28T13:51:51.823Z,52.71
2022-07-28T13:54:20.116Z,52.18
2022-07-28T13:56:49.683Z,49.93
2022-07-28T13:59:17.534Z,45.09
2022-07-28T14:01:49.463Z,52.16
2022-07-28T14:04:18.620Z,62.15
2022-07-28T14:06:49.049Z,50.12
2022-07-28T14:09:18.785Z,50.90
2022-07-28T14:11:54.189Z,47.93
2022-07-28T14:14:24.167Z,58.34
2022-07-28T14:16:54.365Z,56.21
2022-07-28T14:19:38.230Z,56.59
2022-07-28T14:22:12.534Z,61.73
2022-07-28T14:24:41.200Z,51.79
2022-07-28T14:27:10.944Z,56.22
2022-07-28T14:29:39.107Z,48.91
2022-07-28T14:32:06.992Z,51.70
2022-07-28T14:34:35.069Z,46.04
2022-07-28T14:37:05.800Z,42.46
2022-07-28T14:39:37.291Z,47.54
2022-07-28T14:42:05.589Z,38.46
2022-07-28T14:44:34.749Z,48.18
2022-07-28T14:47:02.496Z,51.61
2022-07-28T14:49:30.211Z,55.84
2022-07-28T14:51:59.363Z,54.10
2022-07-28T14:54:27.668Z,57.04
2022-07-28T14:56:55.871Z,40.49
2022-07-28T14:59:23.529Z,56.60
2022-07-28T15:01:52.809Z,44.38
2022-07-28T15:04:20.552Z,52.75
2022-07-28T15:06:48.363Z,54.73
2022-07-28T15:09:16.174Z,58.88
2022-07-28T15:11:46.272Z,57.16
2022-07-28T15:14:14.702Z,61.49
2022-07-28T15:16:43.082Z,57.84
2022-07-28T15:19:12.253Z,53.04
2022-07-28T15:21:40.809Z,61.64
2022-07-28T15:24:10.159Z,51.96
2022-07-28T15:26:37.805Z,59.49
2022-07-28T15:29:06.205Z,52.55
2022-07-28T15:31:33.891Z,61.10
2022-07-28T15:34:01.649Z,62.72
2022-07-28T15:36:34.246Z,48.90
2022-07-28T15:39:01.880Z,53.21
2022-07-28T15:41:29.781Z,56.98
2022-07-28T15:43:57.574Z,57.93
2022-07-28T15:46:25.254Z,67.90
2022-07-28T15:48:54.518Z,75.92
2022-07-28T15:51:25.629Z,52.40
2022-07-28T15:53:56.367Z,68.23
2022-07-28T15:56:26.229Z,67.96
2022-07-28T15:58:53.901Z,68.84
2022-07-28T16:01:21.679Z,59.18
2022-07-28T16:03:49.420Z,79.54
2022-07-28T16:06:17.583Z,68.58
2022-07-28T16:08:45.381Z,100.00
2022-07-28T16:11:15.208Z,100.00
2022-07-28T16:13:43.483Z,100.00
2022-07-28T16:16:12.694Z,100.00
2022-07-28T16:18:43.506Z,100.00
2022-07-28T16:21:11.858Z,100.00
2022-07-28T16:23:39.672Z,100.00
2022-07-28T16:26:09.221Z,100.00
2022-07-28T16:28:38.469Z,91.43
2022-07-28T16:31:06.805Z,100.00
2022-07-28T16:33:34.780Z,100.00
2022-07-28T16:36:02.768Z,92.24
2022-07-28T16:38:30.510Z,100.00
2022-07-28T16:40:58.187Z,97.98
2022-07-28T16:43:25.841Z,100.00
2022-07-28T16:45:54.957Z,100.00
2022-07-28T16:48:22.636Z,82.75
2022-07-28T16:50:51.747Z,100.00
2022-07-28T16:53:19.355Z,88.75
2022-07-28T16:55:48.148Z,100.00
2022-07-28T16:58:15.854Z,100.00
2022-07-28T17:00:43.881Z,97.13
2022-07-28T17:03:12.890Z,100.00
2022-07-28T17:05:40.529Z,94.92
2022-07-28T17:08:08.528Z,100.00
2022-07-28T17:10:36.286Z,83.12
2022-07-28T17:13:03.948Z,76.48
2022-07-28T17:15:31.617Z,95.51
2022-07-28T17:17:59.272Z,100.00
2022-07-28T17:20:28.380Z,76.77
2022-07-28T17:22:56.087Z,93.49
2022-07-28T17:28:11.424Z,75.53
2022-07-28T17:30:40.445Z,79.23
2022-07-28T17:33:09.099Z,98.57
2022-07-28T17:35:38.510Z,100.00
2022-07-28T17:38:09.151Z,81.39
2022-07-28T17:40:38.075Z,81.57
2022-07-28T17:43:05.844Z,100.00
2022-07-28T17:45:33.500Z,95.69
2022-07-28T17:48:01.137Z,97.58
2022-07-28T17:50:29.050Z,95.28
2022-07-28T17:52:58.118Z,100.00
2022-07-28T17:55:58.118Z,86.23
2022-07-28T17:58:29.420Z,86.81
2022-07-28T18:00:58.947Z,92.71
2022-07-28T18:03:59.716Z,100.00
2022-07-28T18:06:28.292Z,98.71
2022-07-28T18:08:57.418Z,80.73
2022-07-28T18:11:31.501Z,97.35
2022-07-28T18:14:04.842Z,88.95
2022-07-28T18:16:45.608Z,96.34
2022-07-28T18:19:13.933Z,85.98
2022-07-28T18:21:43.264Z,86.37
2022-07-28T18:24:12.541Z,100.00
2022-07-28T18:26:40.631Z,86.87
2022-07-28T18:29:08.265Z,100.00
2022-07-28T18:31:36.016Z,91.10
2022-07-28T18:34:03.736Z,84.66
2022-07-28T18:36:31.812Z,100.00
2022-07-28T18:38:59.500Z,96.76
2022-07-28T18:41:28.991Z,100.00
2022-07-28T18:44:02.418Z,100.00
2022-07-28T18:46:30.113Z,100.00
2022-07-28T18:48:57.903Z,86.00
2022-07-28T18:51:25.782Z,99.33
2022-07-28T18:53:53.451Z,79.11
2022-07-28T18:56:21.201Z,93.75
2022-07-28T18:58:52.023Z,86.92
2022-07-28T19:01:19.754Z,87.01
2022-07-28T19:03:47.411Z,86.58
2022-07-28T19:06:15.042Z,97.23
2022-07-28T19:08:42.738Z,100.00
2022-07-28T19:11:10.399Z,86.42
2022-07-28T19:13:38.096Z,100.00
2022-07-28T19:16:07.426Z,81.29
2022-07-28T19:18:35.115Z,100.00
2022-07-28T19:21:02.746Z,95.13
2022-07-28T19:23:30.848Z,98.74
2022-07-28T19:25:58.491Z,85.03
2022-07-28T19:28:26.129Z,93.40
2022-07-28T19:30:53.941Z,89.72
2022-07-28T19:33:24.607Z,100.00
2022-07-28T19:35:52.283Z,100.00
2022-07-28T19:38:19.919Z,97.43
2022-07-28T19:40:47.552Z,98.91
2022-07-28T19:43:15.200Z,96.18
2022-07-28T19:45:42.904Z,94.47
2022-07-28T19:48:10.614Z,83.81
2022-07-28T19:50:40.980Z,87.41
2022-07-28T19:53:14.842Z,90.56
2022-07-28T19:55:43.895Z,100.00
2022-07-28T19:58:19.022Z,100.00
2022-07-28T20:00:48.308Z,92.54
2022-07-28T20:04:01.414Z,99.13
2022-07-28T20:06:05.728Z,96.50
2022-07-28T20:08:33.341Z,89.13
2022-07-28T20:11:01.354Z,97.19
2022-07-28T20:13:29.039Z,100.00
2022-07-28T20:15:56.696Z,100.00
2022-07-28T20:18:24.343Z,92.07
2022-07-28T20:20:52.007Z,87.80
2022-07-28T20:23:21.051Z,95.48
2022-07-28T20:25:48.675Z,100.00
2022-07-28T20:28:16.292Z,100.00
2022-07-28T20:30:44.059Z,100.00
2022-07-28T20:33:11.732Z,100.00
2022-07-28T20:35:39.390Z,90.01
2022-07-28T20:38:08.245Z,83.03
2022-07-28T20:40:37.287Z,100.00
2022-07-28T20:43:04.926Z,100.00
2022-07-28T20:45:32.672Z,90.54
2022-07-28T20:48:00.524Z,89.54
2022-07-28T20:50:28.679Z,100.00
2022-07-28T20:52:56.563Z,91.34
2022-07-28T20:55:24.202Z,93.71
2022-07-28T20:57:55.820Z,100.00
2022-07-28T21:00:24.977Z,91.70
2022-07-28T21:02:53.113Z,94.80
2022-07-28T21:05:26.781Z,95.50
2022-07-28T21:08:05.912Z,96.90
2022-07-28T21:10:34.671Z,97.92
2022-07-28T21:13:03.706Z,99.41
2022-07-28T21:15:31.574Z,97.96
2022-07-28T21:17:59.320Z,100.00
2022-07-28T21:20:26.992Z,100.00
2022-07-28T21:22:54.747Z,100.00
2022-07-28T21:25:22.881Z,97.56
2022-07-28T21:28:08.219Z,100.00
2022-07-28T21:30:37.217Z,100.00
2022-07-28T21:33:05.001Z,100.00
2022-07-28T21:35:32.686Z,98.74
2022-07-28T21:38:00.557Z,100.00
2022-07-28T21:40:28.183Z,99.45
2022-07-28T21:42:55.825Z,100.00
2022-07-28T21:45:23.591Z,100.00
2022-07-28T21:47:52.615Z,100.00
2022-07-28T21:50:20.323Z,100.00
2022-07-28T21:52:47.976Z,99.64
2022-07-28T21:55:15.716Z,99.93
2022-07-28T21:57:43.350Z,100.00
2022-07-28T22:00:12.177Z,100.00
2022-07-28T22:02:41.153Z,100.00
2022-07-28T22:05:11.126Z,100.00
2022-07-28T22:07:38.863Z,100.00
2022-07-28T22:10:07.426Z,100.00
2022-07-28T22:12:35.118Z,99.89
2022-07-28T22:15:02.969Z,100.00
2022-07-28T22:17:30.688Z,100.00
2022-07-28T22:19:58.386Z,100.00
2022-07-28T22:22:27.433Z,100.00
2022-07-28T22:24:55.078Z,100.00
2022-07-28T22:27:22.818Z,100.00
2022-07-28T22:29:52.080Z,100.00
2022-07-28T22:32:28.118Z,100.00
2022-07-28T22:34:57.501Z,100.00
2022-07-28T22:37:25.220Z,100.00
2022-07-28T22:39:54.245Z,100.00
2022-07-28T22:42:22.261Z,100.00
2022-07-28T22:44:49.866Z,100.00
2022-07-28T22:47:17.513Z,100.00
2022-07-28T22:49:45.133Z,100.00
2022-07-28T22:52:12.777Z,100.00
2022-07-28T22:54:40.885Z,100.00
2022-07-28T22:57:09.936Z,100.00
2022-07-28T22:59:39.943Z,100.00
2022-07-28T23:02:07.982Z,100.00
2022-07-28T23:04:38.774Z,100.00
2022-07-28T23:07:11.935Z,98.96
2022-07-28T23:09:40.014Z,100.00
2022-07-28T23:12:10.769Z,100.00
2022-07-28T23:14:38.520Z,100.00
2022-07-28T23:17:06.557Z,100.00
2022-07-28T23:19:34.216Z,100.00
2022-07-28T23:22:01.869Z,100.00
2022-07-28T23:24:29.566Z,100.00
2022-07-28T23:26:57.655Z,100.00
2022-07-28T23:29:26.753Z,100.00
2022-07-28T23:31:55.021Z,100.00
2022-07-28T23:34:22.716Z,100.00
2022-07-28T23:36:50.347Z,100.00
2022-07-28T23:39:18.011Z,100.00
2022-07-28T23:41:47.281Z,100.00
2022-07-28T23:44:15.086Z,100.00
2022-07-28T23:46:44.336Z,100.00
2022-07-28T23:49:12.185Z,100.00
2022-07-28T23:51:47.550Z,100.00
2022-07-28T23:54:17.016Z,100.00
2022-07-28T23:56:45.110Z,100.00
2022-07-28T23:59:14.299Z,100.00
